Sandringham, United Kingdom
Current Conditions -  °F | °C
As of 3:50 PM on Monday 24 Nov 2014 (Local Time) from EGYM Reporting Station
Clear Clear  
Wind Chill: 43°   Ceiling: Unl
Heat Index: 43°   Visibility: 6mi
Dew Point: 41°   Wind: 2mph
Humidity: 93%   Direction: 160°SSE
Pressure: 30.3"   Gusts: NA
Location:  52.82°N, 0.5°E
Report Text: EGYM 241550Z 16002KT CAVOK 06/05 Q1026 BLU BECMG 4000 HZ GRN
Loading
Personal Weather Stations






























Interactive Weather Map New forecast layout! Learn more

10-Day Weather Forecast

Advertisements
Track Severe Weather on mobile